Time;durP1;ratioP1;P1;durP2;ratioP2;P2;SDS_P1;SDS_P2;PMS_P1;PMS_P2;Temp;Humidity;BMP_temperature;BMP_pressure;BME280_temperature;BME280_humidity;BME280_pressure;Samples;Min_cycle;Max_cycle;Signal;HPM_P1;HPM_P2
2021/05/30 00:02:18;;;;;;;5.35;2.78;;;17.10;82.10;;;;;;5072777;28;20032;-70
2021/05/30 00:04:44;;;;;;;5.15;3.60;;;17.00;82.40;;;;;;5070586;28;20027;-69
2021/05/30 00:07:10;;;;;;;8.75;5.30;;;17.10;82.90;;;;;;5072803;28;20025;-70
2021/05/30 00:09:38;;;;;;;11.20;5.00;;;17.10;83.10;;;;;;5071399;28;20558;-70
2021/05/30 00:12:09;;;;;;;8.60;5.32;;;17.00;83.40;;;;;;5071843;28;20051;-69
2021/05/30 00:14:35;;;;;;;9.50;5.90;;;17.00;83.80;;;;;;5072523;28;20024;-69
2021/05/30 00:17:00;;;;;;;7.57;5.78;;;17.00;84.20;;;;;;5072688;28;20100;-69
2021/05/30 00:19:26;;;;;;;8.57;6.30;;;17.00;84.90;;;;;;5074364;28;20127;-69
2021/05/30 00:21:52;;;;;;;8.27;5.78;;;16.90;85.50;;;;;;5071036;28;20020;-70
2021/05/30 00:24:18;;;;;;;11.63;6.97;;;16.80;86.40;;;;;;5072535;28;20079;-69
2021/05/30 00:26:44;;;;;;;8.10;6.65;;;16.70;86.80;;;;;;5072560;28;20020;-69
2021/05/30 00:29:10;;;;;;;8.02;6.45;;;16.70;87.60;;;;;;5072487;28;20108;-69
2021/05/30 00:31:36;;;;;;;10.35;6.65;;;16.60;88.30;;;;;;5072566;28;20051;-69
2021/05/30 00:34:01;;;;;;;12.13;7.35;;;16.50;89.20;;;;;;5072088;28;20039;-70
2021/05/30 00:36:27;;;;;;;7.68;5.78;;;16.50;89.60;;;;;;5072760;28;20028;-70
2021/05/30 00:38:53;;;;;;;7.55;5.32;;;16.40;89.80;;;;;;5072380;28;20046;-69
2021/05/30 00:41:19;;;;;;;5.63;3.88;;;16.40;90.10;;;;;;5072445;28;20024;-69
2021/05/30 00:43:51;;;;;;;4.88;3.50;;;16.40;89.60;;;;;;5072887;28;20025;-69
2021/05/30 00:46:17;;;;;;;5.30;3.40;;;16.40;89.00;;;;;;5072733;28;20020;-70
2021/05/30 00:48:44;;;;;;;5.50;3.00;;;16.50;88.40;;;;;;5087488;28;20356;-69
2021/05/30 00:51:10;;;;;;;5.70;3.38;;;16.60;87.60;;;;;;5072214;28;20033;-69
2021/05/30 00:53:36;;;;;;;4.82;2.80;;;16.60;86.50;;;;;;5072437;28;20443;-69
2021/05/30 00:56:07;;;;;;;5.20;3.08;;;16.60;85.80;;;;;;5072654;28;20459;-69
2021/05/30 00:58:33;;;;;;;6.28;3.10;;;16.70;85.10;;;;;;5071613;28;20066;-69
2021/05/30 01:00:59;;;;;;;6.03;3.42;;;16.70;84.40;;;;;;5072625;28;20029;-69
2021/05/30 01:03:25;;;;;;;4.93;3.50;;;16.70;84.20;;;;;;5071542;28;20029;-69
2021/05/30 01:05:51;;;;;;;4.25;3.47;;;16.80;84.00;;;;;;5072311;28;20020;-69
2021/05/30 01:08:26;;;;;;;10.63;6.38;;;16.70;83.60;;;;;;5071623;28;20029;-69
2021/05/30 01:10:52;;;;;;;10.00;7.03;;;16.70;84.30;;;;;;5072337;28;20454;-68
2021/05/30 01:13:20;;;;;;;9.73;7.05;;;16.60;85.20;;;;;;5072508;28;20033;-68
2021/05/30 01:15:48;;;;;;;9.40;6.97;;;16.60;86.10;;;;;;5071915;28;20445;-68
2021/05/30 01:18:21;;;;;;;9.70;7.55;;;16.40;86.90;;;;;;5071964;28;20029;-69
2021/05/30 01:20:48;;;;;;;9.43;7.22;;;16.40;87.70;;;;;;5071587;28;20048;-75
2021/05/30 01:23:15;;;;;;;10.00;7.57;;;16.30;88.50;;;;;;5071158;28;20116;-69
2021/05/30 01:25:42;;;;;;;11.95;8.05;;;16.20;89.10;;;;;;5072184;28;20025;-69
2021/05/30 01:28:08;;;;;;;11.45;8.43;;;16.20;89.50;;;;;;5071892;28;20107;-69
2021/05/30 01:30:35;;;;;;;13.20;9.50;;;16.20;90.00;;;;;;5070467;28;20024;-69
2021/05/30 01:33:02;;;;;;;11.30;9.43;;;16.20;90.10;;;;;;5073937;28;20036;-70
2021/05/30 01:35:28;;;;;;;9.70;7.85;;;16.10;90.20;;;;;;5071818;28;20492;-70
2021/05/30 01:37:53;;;;;;;11.23;8.48;;;16.00;90.50;;;;;;5072101;28;20043;-70
2021/05/30 01:40:20;;;;;;;12.73;9.95;;;15.90;90.70;;;;;;5071954;28;20020;-69
2021/05/30 01:42:50;;;;;;;11.77;9.25;;;15.90;90.90;;;;;;5071491;28;20032;-70
2021/05/30 01:45:18;;;;;;;10.43;9.00;;;15.80;91.20;;;;;;5074073;28;20036;-70
2021/05/30 01:47:45;;;;;;;15.50;10.07;;;15.80;91.40;;;;;;5075246;28;20467;-70
2021/05/30 01:50:20;;;;;;;13.15;9.65;;;15.70;91.70;;;;;;5073955;28;20028;-70
2021/05/30 01:52:47;;;;;;;12.80;9.02;;;15.70;91.80;;;;;;5085357;28;20145;-70
2021/05/30 01:55:47;;;;;;;13.15;9.70;;;15.60;92.00;;;;;;5077515;28;20025;-70
2021/05/30 01:58:02;;;;;;;12.38;9.57;;;15.60;92.20;;;;;;5074835;28;20025;-70
2021/05/30 02:00:28;;;;;;;14.60;9.48;;;15.60;92.20;;;;;;5074275;28;20379;-70
2021/05/30 02:02:55;;;;;;;12.50;9.75;;;15.60;92.40;;;;;;5083801;28;20174;-70
2021/05/30 02:05:22;;;;;;;11.25;9.32;;;15.60;92.50;;;;;;5089003;28;20552;-70
2021/05/30 02:07:49;;;;;;;11.27;8.95;;;15.60;93.00;;;;;;5075334;28;20024;-69
2021/05/30 02:10:16;;;;;;;13.18;8.00;;;15.60;93.30;;;;;;5074662;28;20028;-70
2021/05/30 02:12:46;;;;;;;12.73;9.18;;;15.70;93.30;;;;;;5074648;28;20025;-70
2021/05/30 02:15:12;;;;;;;12.95;8.73;;;15.70;93.20;;;;;;5073841;28;20035;-70
2021/05/30 02:17:39;;;;;;;12.18;8.73;;;15.70;93.10;;;;;;5074641;28;20017;-70
2021/05/30 02:20:06;;;;;;;10.80;8.07;;;15.70;93.20;;;;;;5075053;28;20057;-69
2021/05/30 02:22:32;;;;;;;13.95;8.38;;;15.60;93.00;;;;;;5074156;28;20038;-70
2021/05/30 02:24:58;;;;;;;9.57;7.65;;;15.50;93.10;;;;;;5079912;28;20386;-70
2021/05/30 02:27:24;;;;;;;10.20;7.13;;;15.50;93.70;;;;;;5082127;28;20031;-70
2021/05/30 02:29:51;;;;;;;9.60;6.90;;;15.50;93.90;;;;;;5074733;28;20475;-70
2021/05/30 02:32:17;;;;;;;9.50;7.30;;;15.60;94.10;;;;;;5074523;28;20036;-70
2021/05/30 02:34:43;;;;;;;12.23;7.63;;;15.60;94.00;;;;;;5076090;28;20036;-70
2021/05/30 02:37:17;;;;;;;8.73;7.80;;;15.60;93.80;;;;;;5084738;28;20055;-72
2021/05/30 02:39:43;;;;;;;10.23;7.57;;;15.60;93.80;;;;;;5074381;28;20035;-70
2021/05/30 02:42:10;;;;;;;9.05;6.50;;;15.70;94.00;;;;;;5074606;28;20040;-70
2021/05/30 02:44:36;;;;;;;7.65;6.40;;;15.70;94.10;;;;;;5074340;28;20082;-72
2021/05/30 02:47:02;;;;;;;11.18;6.57;;;15.70;94.30;;;;;;5086903;28;20029;-70
2021/05/30 02:49:29;;;;;;;12.82;6.78;;;15.80;94.20;;;;;;5073316;28;20028;-70
2021/05/30 02:51:55;;;;;;;7.60;5.80;;;15.90;94.30;;;;;;5074241;28;20119;-70
2021/05/30 02:54:21;;;;;;;9.32;5.88;;;16.00;94.60;;;;;;5072731;28;20431;-70
2021/05/30 02:56:47;;;;;;;6.72;4.97;;;16.20;94.30;;;;;;5072017;28;20021;-70
2021/05/30 02:59:13;;;;;;;6.78;4.88;;;16.30;94.10;;;;;;5074179;28;20036;-71
2021/05/30 03:01:39;;;;;;;6.82;4.38;;;16.60;94.30;;;;;;5072560;28;20136;-71
2021/05/30 03:04:05;;;;;;;7.00;4.47;;;16.90;94.20;;;;;;5074431;28;20099;-71
2021/05/30 03:06:31;;;;;;;7.30;4.07;;;17.20;93.40;;;;;;5073502;28;20033;-71
2021/05/30 03:08:58;;;;;;;6.03;3.90;;;17.50;92.80;;;;;;5073890;28;20074;-71
2021/05/30 03:11:25;;;;;;;3.60;3.00;;;17.90;91.60;;;;;;5074078;28;20028;-71
2021/05/30 03:13:50;;;;;;;3.72;2.60;;;18.20;90.30;;;;;;5075248;28;20043;-71
2021/05/30 03:16:16;;;;;;;3.20;2.50;;;18.50;87.60;;;;;;5073581;28;20025;-71
2021/05/30 03:18:42;;;;;;;4.80;2.80;;;18.70;84.90;;;;;;5071798;28;20051;-71
2021/05/30 03:21:08;;;;;;;4.20;2.65;;;18.90;84.00;;;;;;5072376;28;20092;-71
2021/05/30 03:23:34;;;;;;;5.65;2.67;;;19.20;81.50;;;;;;5073399;28;20025;-71
2021/05/30 03:25:59;;;;;;;4.53;2.50;;;19.60;80.40;;;;;;5073699;28;20566;-71
2021/05/30 03:28:25;;;;;;;3.83;2.35;;;19.90;78.50;;;;;;5073061;28;20029;-74
2021/05/30 03:30:50;;;;;;;4.97;2.40;;;20.20;77.00;;;;;;5072355;28;20098;-71
2021/05/30 03:33:16;;;;;;;6.45;2.45;;;20.40;75.70;;;;;;5072903;28;20066;-72
2021/05/30 03:35:44;;;;;;;5.20;2.35;;;20.70;75.00;;;;;;5073647;28;20035;-71
2021/05/30 03:38:12;;;;;;;7.32;3.88;;;21.00;73.90;;;;;;5073308;28;20099;-71
2021/05/30 03:40:50;;;;;;;3.35;2.30;;;21.40;72.60;;;;;;5073215;28;20170;-74
2021/05/30 03:43:16;;;;;;;3.15;2.30;;;21.50;71.30;;;;;;5072438;28;20103;-71
2021/05/30 03:45:42;;;;;;;4.55;2.45;;;21.60;70.30;;;;;;5083287;28;20046;-71
2021/05/30 03:48:08;;;;;;;3.67;3.13;;;21.90;69.50;;;;;;5088475;28;20419;-72
2021/05/30 03:50:35;;;;;;;5.15;3.53;;;22.30;68.90;;;;;;5071342;28;20024;-72
2021/05/30 03:53:02;;;;;;;6.13;4.00;;;22.70;67.90;;;;;;5073334;28;20110;-71
2021/05/30 03:55:28;;;;;;;4.53;3.45;;;23.10;67.10;;;;;;5071950;28;20505;-71
2021/05/30 03:57:54;;;;;;;7.53;4.53;;;23.40;66.10;;;;;;5073125;28;20043;-71
2021/05/30 04:00:20;;;;;;;6.57;3.65;;;23.60;65.00;;;;;;5072690;28;20048;-71
2021/05/30 04:02:47;;;;;;;6.13;3.10;;;23.70;64.50;;;;;;5071075;28;20813;-72
2021/05/30 04:05:13;;;;;;;5.47;3.35;;;24.10;64.40;;;;;;5073012;28;20024;-72
2021/05/30 04:07:40;;;;;;;6.47;3.22;;;24.40;63.30;;;;;;5072162;28;20024;-71
2021/05/30 04:10:10;;;;;;;4.75;2.70;;;24.70;62.10;;;;;;5071571;28;20025;-72
2021/05/30 04:12:42;;;;;;;5.07;3.10;;;24.80;60.90;;;;;;5072291;28;20382;-71
2021/05/30 04:15:11;;;;;;;4.97;3.03;;;24.90;60.40;;;;;;5078435;28;20031;-71
2021/05/30 04:17:38;;;;;;;4.57;3.00;;;24.70;59.70;;;;;;5072132;28;20826;-71
2021/05/30 04:20:05;;;;;;;5.05;2.85;;;24.40;59.80;;;;;;5072563;28;20049;-70
2021/05/30 04:22:31;;;;;;;5.70;3.00;;;24.20;60.20;;;;;;5071109;28;20029;-71
2021/05/30 04:24:56;;;;;;;6.25;3.05;;;24.40;60.70;;;;;;5072584;28;20024;-71
2021/05/30 04:27:22;;;;;;;5.00;3.05;;;24.40;59.20;;;;;;5072941;28;20029;-70
2021/05/30 04:29:48;;;;;;;4.05;2.97;;;24.00;59.00;;;;;;5072294;28;20016;-70
2021/05/30 04:32:13;;;;;;;5.05;2.90;;;23.50;59.90;;;;;;5072182;28;20541;-70
2021/05/30 04:34:39;;;;;;;4.63;2.70;;;23.20;61.00;;;;;;5072272;28;20036;-70
2021/05/30 04:37:05;;;;;;;5.85;3.20;;;23.00;61.00;;;;;;5072432;28;20475;-70
2021/05/30 04:39:33;;;;;;;6.13;3.20;;;23.00;62.60;;;;;;5072274;28;20032;-73
2021/05/30 04:41:59;;;;;;;3.60;2.80;;;23.50;62.90;;;;;;5085010;28;20025;-70
2021/05/30 04:44:26;;;;;;;6.53;2.97;;;24.10;61.90;;;;;;5070941;28;20028;-71
2021/05/30 04:46:51;;;;;;;5.32;2.65;;;24.60;60.50;;;;;;5072225;28;20029;-70
2021/05/30 04:49:17;;;;;;;4.93;2.53;;;24.70;58.70;;;;;;5072686;28;20039;-70
2021/05/30 04:51:43;;;;;;;4.80;2.55;;;24.90;58.40;;;;;;5072131;28;20033;-70
2021/05/30 04:54:09;;;;;;;6.53;3.20;;;25.00;57.20;;;;;;5072149;28;20070;-72
2021/05/30 04:56:35;;;;;;;4.50;2.40;;;25.10;56.80;;;;;;5071760;28;20119;-70
2021/05/30 04:59:00;;;;;;;3.47;2.40;;;24.90;56.60;;;;;;5072199;28;20030;-70
2021/05/30 05:01:26;;;;;;;4.13;2.42;;;24.70;56.30;;;;;;5071888;28;20459;-70
2021/05/30 05:03:52;;;;;;;4.82;2.53;;;24.60;57.10;;;;;;5071091;28;20072;-70
2021/05/30 05:06:17;;;;;;;3.88;2.53;;;24.70;57.40;;;;;;5070837;28;20382;-70
2021/05/30 05:08:43;;;;;;;3.22;1.92;;;25.10;56.80;;;;;;5071161;28;20079;-70
2021/05/30 05:11:09;;;;;;;5.45;2.13;;;25.40;55.30;;;;;;5070651;28;20033;-71
2021/05/30 05:13:36;;;;;;;2.60;1.90;;;25.80;54.70;;;;;;5071456;28;20516;-71
2021/05/30 05:16:02;;;;;;;3.85;1.90;;;26.00;54.20;;;;;;5071988;28;20025;-71
2021/05/30 05:18:31;;;;;;;3.53;1.70;;;26.40;53.40;;;;;;5070777;28;20020;-71
2021/05/30 05:20:57;;;;;;;3.25;1.50;;;26.70;53.00;;;;;;5075613;28;20039;-71
2021/05/30 05:23:24;;;;;;;3.05;1.60;;;26.90;51.90;;;;;;5074848;28;20111;-71
2021/05/30 05:25:54;;;;;;;2.47;1.50;;;26.60;50.50;;;;;;5075535;28;20104;-71
2021/05/30 05:28:21;;;;;;;3.35;1.90;;;26.50;50.30;;;;;;5074105;28;20024;-71
2021/05/30 05:30:48;;;;;;;6.25;4.95;;;26.10;49.80;;;;;;5075458;28;20041;-71
2021/05/30 05:33:14;;;;;;;3.25;1.70;;;26.00;50.50;;;;;;5075569;28;20061;-72
2021/05/30 05:35:39;;;;;;;3.38;1.70;;;25.90;50.60;;;;;;5084290;28;20063;-70
2021/05/30 05:38:05;;;;;;;3.50;1.75;;;26.00;51.20;;;;;;5075544;28;20032;-70
2021/05/30 05:40:31;;;;;;;3.67;1.70;;;26.30;51.10;;;;;;5073419;28;20116;-71
2021/05/30 05:42:57;;;;;;;2.97;1.73;;;26.50;51.20;;;;;;5075077;28;20025;-70
2021/05/30 05:45:24;;;;;;;3.60;1.85;;;26.70;50.00;;;;;;5087993;28;20028;-70
2021/05/30 05:47:51;;;;;;;4.43;2.33;;;26.80;49.90;;;;;;5075709;28;20103;-70
2021/05/30 05:50:18;;;;;;;2.25;1.70;;;27.00;49.50;;;;;;5075219;28;20044;-70
2021/05/30 05:52:45;;;;;;;3.45;1.60;;;26.80;49.50;;;;;;5074580;28;20742;-70
2021/05/30 05:55:12;;;;;;;2.72;1.80;;;26.70;48.90;;;;;;5074701;28;20021;-71
2021/05/30 05:57:39;;;;;;;3.60;2.53;;;26.70;48.70;;;;;;5075665;28;20024;-70
2021/05/30 06:00:07;;;;;;;3.80;1.60;;;26.70;48.90;;;;;;5075050;28;20028;-70
2021/05/30 06:02:33;;;;;;;2.35;1.80;;;26.80;48.70;;;;;;5074876;28;20028;-71
2021/05/30 06:04:59;;;;;;;2.33;1.67;;;26.90;49.40;;;;;;5073802;28;20089;-70
2021/05/30 06:07:24;;;;;;;2.03;1.77;;;27.10;49.30;;;;;;5073847;28;20035;-70
2021/05/30 06:09:53;;;;;;;4.10;1.75;;;27.30;48.60;;;;;;5081847;28;20033;-71
2021/05/30 06:12:18;;;;;;;2.53;1.90;;;27.40;48.30;;;;;;5074258;28;20028;-71
2021/05/30 06:14:45;;;;;;;3.47;2.05;;;27.50;47.70;;;;;;5074751;28;20025;-70
2021/05/30 06:17:12;;;;;;;6.90;1.80;;;27.50;48.10;;;;;;5074489;28;20021;-70
2021/05/30 06:19:37;;;;;;;6.70;1.70;;;27.50;47.90;;;;;;5074630;28;20055;-70
2021/05/30 06:22:04;;;;;;;2.90;1.75;;;27.60;47.60;;;;;;5074289;28;20037;-70
2021/05/30 06:24:34;;;;;;;3.53;1.90;;;27.60;47.90;;;;;;5074743;28;20467;-70
2021/05/30 06:27:02;;;;;;;2.22;1.80;;;27.90;47.90;;;;;;5074565;28;20075;-70
2021/05/30 06:29:29;;;;;;;2.10;1.90;;;28.20;47.50;;;;;;5073207;28;20025;-71
2021/05/30 06:31:55;;;;;;;3.58;1.80;;;28.30;46.80;;;;;;5071847;28;20024;-70
2021/05/30 06:34:21;;;;;;;3.65;1.80;;;28.50;47.00;;;;;;5074743;28;20024;-71
2021/05/30 06:36:50;;;;;;;5.13;2.00;;;28.60;46.90;;;;;;5073672;28;20439;-71
2021/05/30 06:39:16;;;;;;;4.43;2.10;;;28.60;46.10;;;;;;5073458;28;20029;-70
2021/05/30 06:41:43;;;;;;;2.38;1.70;;;28.50;46.10;;;;;;5074249;28;20024;-71
2021/05/30 06:44:09;;;;;;;3.78;1.90;;;28.60;46.00;;;;;;5074578;28;20031;-70
2021/05/30 06:46:35;;;;;;;2.45;1.90;;;28.40;45.80;;;;;;5073964;28;20107;-71
2021/05/30 06:49:02;;;;;;;2.15;1.80;;;28.20;46.20;;;;;;5073381;28;20389;-70
2021/05/30 06:51:31;;;;;;;2.17;1.80;;;28.20;46.40;;;;;;5074115;28;20028;-70
2021/05/30 06:53:59;;;;;;;5.20;2.10;;;28.10;46.10;;;;;;5073132;28;20372;-71
2021/05/30 06:56:26;;;;;;;3.22;1.58;;;28.00;46.20;;;;;;5074339;28;20492;-73
2021/05/30 06:58:52;;;;;;;4.57;1.80;;;28.00;46.40;;;;;;5072684;28;20052;-70
2021/05/30 07:01:19;;;;;;;3.70;2.05;;;28.00;46.70;;;;;;5074060;28;20121;-71
2021/05/30 07:03:48;;;;;;;4.70;1.77;;;28.30;46.40;;;;;;5073508;28;20119;-70
2021/05/30 07:06:16;;;;;;;4.18;1.63;;;28.30;45.60;;;;;;5072465;28;20426;-71
2021/05/30 07:08:42;;;;;;;1.50;1.30;;;28.20;45.90;;;;;;5073436;28;20078;-70
2021/05/30 07:11:08;;;;;;;8.32;1.50;;;28.10;45.40;;;;;;5071933;28;20036;-70
2021/05/30 07:13:34;;;;;;;2.40;1.63;;;28.20;45.50;;;;;;5072503;28;20033;-72
2021/05/30 07:16:00;;;;;;;4.47;2.10;;;28.20;44.70;;;;;;5072576;28;20025;-70
2021/05/30 07:18:26;;;;;;;3.13;1.45;;;28.10;46.30;;;;;;5072091;28;20025;-72
2021/05/30 07:20:53;;;;;;;1.70;1.48;;;28.20;45.80;;;;;;5073458;28;20433;-71
2021/05/30 07:23:20;;;;;;;5.13;1.80;;;28.20;45.20;;;;;;5073540;28;20028;-70
2021/05/30 07:25:46;;;;;;;1.77;1.30;;;28.00;45.70;;;;;;5072972;28;20459;-70
2021/05/30 07:28:12;;;;;;;3.05;1.63;;;28.00;45.70;;;;;;5073630;28;20520;-70
2021/05/30 07:30:38;;;;;;;3.45;1.65;;;27.90;45.40;;;;;;5071450;28;20020;-71
2021/05/30 07:33:04;;;;;;;2.05;1.50;;;27.80;45.60;;;;;;5073083;28;20493;-71
2021/05/30 07:35:31;;;;;;;3.90;1.98;;;27.90;44.90;;;;;;5073242;28;20069;-71
2021/05/30 07:37:57;;;;;;;3.67;1.85;;;27.80;45.20;;;;;;5071893;28;20379;-71
2021/05/30 07:40:24;;;;;;;5.13;2.63;;;27.90;45.40;;;;;;5072326;28;20486;-71
2021/05/30 07:42:50;;;;;;;3.63;1.75;;;28.10;45.20;;;;;;5072795;28;20081;-71
2021/05/30 07:45:17;;;;;;;2.63;1.73;;;28.10;44.60;;;;;;5071448;28;20116;-70
2021/05/30 07:47:44;;;;;;;2.47;1.40;;;27.80;44.80;;;;;;5071588;28;20075;-70
2021/05/30 07:50:11;;;;;;;3.38;1.60;;;27.50;44.90;;;;;;5071853;28;20032;-70
2021/05/30 07:52:37;;;;;;;1.50;1.27;;;27.20;45.20;;;;;;5072680;28;20056;-70
2021/05/30 07:55:04;;;;;;;1.80;1.60;;;27.00;46.10;;;;;;5072565;28;20032;-70
2021/05/30 07:57:30;;;;;;;2.97;1.60;;;27.00;46.20;;;;;;5073316;28;20481;-70
2021/05/30 07:59:56;;;;;;;2.17;1.55;;;27.10;46.70;;;;;;5072585;28;20108;-71
2021/05/30 08:02:23;;;;;;;5.82;1.90;;;27.10;46.10;;;;;;5072988;28;20025;-71
2021/05/30 08:04:49;;;;;;;1.63;1.33;;;26.90;46.50;;;;;;5072564;28;20024;-70
2021/05/30 08:07:15;;;;;;;3.00;1.70;;;26.80;46.60;;;;;;5071536;28;20113;-70
2021/05/30 08:09:41;;;;;;;3.40;1.50;;;26.60;47.20;;;;;;5072546;28;20485;-71
2021/05/30 08:12:07;;;;;;;2.92;1.83;;;26.60;47.90;;;;;;5072738;28;20061;-69
2021/05/30 08:14:34;;;;;;;3.58;1.65;;;26.30;47.30;;;;;;5071118;28;20032;-70
2021/05/30 08:17:00;;;;;;;2.60;1.70;;;26.00;47.40;;;;;;5076311;28;20025;-69
2021/05/30 08:19:25;;;;;;;4.07;1.77;;;25.70;48.10;;;;;;5074277;28;20490;-69
2021/05/30 08:21:51;;;;;;;2.22;1.65;;;25.70;48.60;;;;;;5072736;28;20025;-70
2021/05/30 08:24:17;;;;;;;3.85;1.80;;;25.70;48.70;;;;;;5070982;28;20489;-70
2021/05/30 08:26:43;;;;;;;1.92;1.60;;;25.40;48.80;;;;;;5072427;28;20031;-73
2021/05/30 08:29:08;;;;;;;2.47;1.70;;;25.40;49.80;;;;;;5078707;28;20024;-70
2021/05/30 08:31:34;;;;;;;2.17;1.30;;;26.00;50.40;;;;;;5072106;28;20021;-71
2021/05/30 08:34:00;;;;;;;3.15;1.70;;;26.60;48.80;;;;;;5072450;28;20078;-70
2021/05/30 08:36:28;;;;;;;2.25;1.52;;;27.20;48.50;;;;;;5072119;28;20031;-74
2021/05/30 08:38:53;;;;;;;2.15;1.67;;;27.50;47.50;;;;;;5071463;28;20082;-70
2021/05/30 08:41:20;;;;;;;2.63;1.70;;;27.50;47.10;;;;;;5070944;28;20029;-70
2021/05/30 08:43:46;;;;;;;4.80;1.80;;;27.50;46.80;;;;;;5071011;28;20032;-70
2021/05/30 08:46:12;;;;;;;2.03;1.50;;;27.50;46.60;;;;;;5072368;28;20470;-71
2021/05/30 08:48:38;;;;;;;3.35;1.83;;;27.20;47.00;;;;;;5071830;28;20024;-70
2021/05/30 08:51:05;;;;;;;3.88;2.60;;;27.00;46.60;;;;;;5072613;28;20031;-70
2021/05/30 08:53:42;;;;;;;3.22;1.70;;;26.60;46.80;;;;;;5070947;28;20420;-70
2021/05/30 08:56:09;;;;;;;2.33;1.63;;;26.30;47.70;;;;;;5074956;28;20032;-70
2021/05/30 08:58:44;;;;;;;2.92;1.80;;;25.90;47.60;;;;;;5090080;28;20095;-71
2021/05/30 09:01:12;;;;;;;4.22;1.83;;;26.00;48.60;;;;;;5076798;28;20438;-70
2021/05/30 09:04:04;;;;;;;3.20;1.50;;;26.70;49.20;;;;;;5076138;28;20020;-70
2021/05/30 09:06:30;;;;;;;3.08;1.95;;;27.40;47.50;;;;;;5075820;28;20033;-71
2021/05/30 09:08:56;;;;;;;4.15;2.83;;;27.50;47.10;;;;;;5075754;28;20053;-70
2021/05/30 09:11:42;;;;;;;4.72;1.80;;;27.80;47.00;;;;;;5075067;28;20032;-70
2021/05/30 09:14:16;;;;;;;2.50;1.60;;;27.50;46.10;;;;;;5074803;28;20063;-70
2021/05/30 09:16:57;;;;;;;2.53;1.55;;;27.20;46.60;;;;;;5074282;28;20032;-71
2021/05/30 09:19:47;;;;;;;3.92;1.73;;;26.80;47.30;;;;;;5074225;28;20084;-70
2021/05/30 09:22:39;;;;;;;2.85;1.80;;;26.30;48.00;;;;;;5076390;28;20066;-70
2021/05/30 09:25:09;;;;;;;3.53;1.70;;;26.00;48.40;;;;;;5088710;28;20032;-70
2021/05/30 09:27:41;;;;;;;3.10;1.60;;;25.90;48.50;;;;;;5074642;28;20044;-70
2021/05/30 09:30:30;;;;;;;4.05;1.80;;;25.80;49.00;;;;;;5078241;28;20035;-70
2021/05/30 09:33:14;;;;;;;3.70;2.40;;;25.70;49.40;;;;;;5073770;28;20059;-70
2021/05/30 09:35:39;;;;;;;4.65;2.03;;;25.50;49.20;;;;;;5076323;28;20029;-70
2021/05/30 09:38:08;;;;;;;3.53;1.75;;;25.10;50.00;;;;;;5073976;28;20493;-70
2021/05/30 09:40:40;;;;;;;4.68;1.80;;;24.90;50.50;;;;;;5075818;28;20062;-70
2021/05/30 09:43:14;;;;;;;4.30;2.20;;;24.70;50.80;;;;;;5073645;28;20034;-70
2021/05/30 09:45:42;;;;;;;3.13;2.10;;;24.60;51.10;;;;;;5075704;28;20021;-70
2021/05/30 09:48:17;;;;;;;5.55;2.15;;;24.50;51.40;;;;;;5075285;28;20044;-70
2021/05/30 09:51:02;;;;;;;2.80;1.70;;;24.60;51.50;;;;;;5073769;28;20383;-70
2021/05/30 09:53:35;;;;;;;3.60;1.80;;;25.10;52.10;;;;;;5075159;28;20029;-70
2021/05/30 09:56:01;;;;;;;3.38;1.75;;;26.00;51.50;;;;;;5075417;28;20104;-70
2021/05/30 09:58:27;;;;;;;1.70;1.50;;;26.50;50.20;;;;;;5073813;28;20112;-70
2021/05/30 10:00:56;;;;;;;2.83;1.73;;;26.40;49.20;;;;;;5086151;28;20112;-71
2021/05/30 10:03:23;;;;;;;3.25;1.80;;;26.10;48.50;;;;;;5074831;28;20024;-70
2021/05/30 10:05:49;;;;;;;4.47;1.42;;;25.70;48.80;;;;;;5072423;28;20413;-70
2021/05/30 10:08:15;;;;;;;1.75;1.40;;;25.80;49.70;;;;;;5075456;28;20074;-70
2021/05/30 10:10:43;;;;;;;3.95;1.70;;;25.90;48.90;;;;;;5073182;28;20514;-71
2021/05/30 10:13:10;;;;;;;3.40;1.70;;;26.40;48.70;;;;;;5074419;28;20040;-70
2021/05/30 10:15:37;;;;;;;2.88;1.88;;;26.80;48.00;;;;;;5073626;28;20040;-70
2021/05/30 10:18:19;;;;;;;2.50;1.52;;;27.20;47.90;;;;;;5074835;28;20025;-70
2021/05/30 10:20:47;;;;;;;1.52;1.40;;;27.40;47.30;;;;;;5072894;28;20055;-70
2021/05/30 10:23:18;;;;;;;2.05;1.58;;;27.40;46.70;;;;;;5074939;28;20033;-70
2021/05/30 10:25:44;;;;;;;3.42;1.50;;;27.30;46.70;;;;;;5073697;28;20348;-70
2021/05/30 10:28:18;;;;;;;1.95;1.60;;;27.20;46.90;;;;;;5088722;28;20044;-70
2021/05/30 10:31:21;;;;;;;2.55;1.40;;;27.10;46.70;;;;;;5073440;28;20033;-70
2021/05/30 10:34:10;;;;;;;2.65;1.50;;;27.10;47.10;;;;;;5073747;28;20038;-70
2021/05/30 10:36:44;;;;;;;2.35;1.50;;;27.20;47.10;;;;;;5074138;28;20104;-70
2021/05/30 10:39:28;;;;;;;1.95;1.30;;;27.10;46.30;;;;;;5074308;28;20040;-70
2021/05/30 10:42:06;;;;;;;1.85;1.48;;;26.70;46.50;;;;;;5081690;28;20032;-70
2021/05/30 10:44:52;;;;;;;2.47;1.50;;;26.50;47.10;;;;;;5089578;28;20024;-70
2021/05/30 10:47:19;;;;;;;2.45;1.88;;;26.50;48.20;;;;;;5074416;28;20417;-70
2021/05/30 10:50:18;;;;;;;2.33;1.40;;;26.80;48.30;;;;;;5074363;28;20055;-70
2021/05/30 10:52:46;;;;;;;2.58;1.77;;;27.20;47.30;;;;;;5041540;28;20836;-70
2021/05/30 10:55:25;;;;;;;3.25;1.70;;;26.90;46.70;;;;;;5072514;28;20027;-70
2021/05/30 10:57:51;;;;;;;2.78;1.65;;;26.90;47.00;;;;;;5073307;28;20050;-70
2021/05/30 11:00:17;;;;;;;2.53;1.60;;;26.80;47.50;;;;;;5073942;28;20016;-70
2021/05/30 11:03:11;;;;;;;1.90;1.65;;;26.60;47.20;;;;;;5072194;28;20356;-70
2021/05/30 11:05:47;;;;;;;3.88;1.67;;;26.30;47.20;;;;;;5072328;28;20471;-70
2021/05/30 11:08:31;;;;;;;2.00;1.60;;;26.00;48.00;;;;;;5072671;28;20032;-69
2021/05/30 11:11:26;;;;;;;3.17;1.70;;;25.80;48.70;;;;;;5086018;28;20024;-69
2021/05/30 11:13:58;;;;;;;2.88;2.08;;;25.60;48.70;;;;;;5072620;28;20575;-70
2021/05/30 11:16:25;;;;;;;4.20;2.33;;;25.40;48.70;;;;;;5072512;28;20374;-70
2021/05/30 11:19:10;;;;;;;4.68;2.00;;;25.10;49.00;;;;;;5072901;28;20080;-69
2021/05/30 11:21:38;;;;;;;3.35;1.90;;;24.80;49.50;;;;;;5074197;28;20111;-69
2021/05/30 11:24:05;;;;;;;4.15;1.80;;;24.60;49.50;;;;;;5072734;28;20033;-69
2021/05/30 11:26:31;;;;;;;3.20;1.77;;;24.50;50.30;;;;;;5073039;28;20070;-69
2021/05/30 11:28:57;;;;;;;2.25;1.77;;;24.30;50.60;;;;;;5072658;28;20020;-70
2021/05/30 11:31:23;;;;;;;2.42;1.77;;;24.10;50.70;;;;;;5073330;28;20104;-72
2021/05/30 11:34:06;;;;;;;3.92;1.88;;;24.00;51.30;;;;;;5073362;28;20023;-69
2021/05/30 11:36:37;;;;;;;3.13;1.60;;;24.00;51.70;;;;;;5071332;28;20082;-70
2021/05/30 11:39:10;;;;;;;3.25;1.70;;;24.20;51.40;;;;;;5072917;28;20071;-70
2021/05/30 11:41:45;;;;;;;3.80;1.67;;;24.30;51.60;;;;;;5074353;28;20123;-70
2021/05/30 11:44:15;;;;;;;3.15;1.90;;;24.30;51.10;;;;;;5072056;28;20035;-70
2021/05/30 11:46:48;;;;;;;2.53;1.60;;;24.30;51.70;;;;;;5071791;28;20471;-70
2021/05/30 11:49:30;;;;;;;2.08;1.73;;;24.20;51.90;;;;;;5071520;28;20028;-71
2021/05/30 11:52:01;;;;;;;4.53;1.70;;;24.10;51.60;;;;;;5072674;28;20538;-70
2021/05/30 11:54:33;;;;;;;2.08;1.50;;;24.20;52.20;;;;;;5071601;28;20166;-72
2021/05/30 11:57:06;;;;;;;3.72;1.60;;;24.20;51.90;;;;;;5071937;28;20372;-70
2021/05/30 11:59:33;;;;;;;2.35;1.50;;;24.10;51.90;;;;;;5081118;28;20024;-70
2021/05/30 12:01:59;;;;;;;2.28;1.70;;;24.10;52.20;;;;;;5072731;28;20475;-70
2021/05/30 12:04:36;;;;;;;5.70;2.35;;;24.10;52.00;;;;;;5072843;28;20036;-73
2021/05/30 12:07:08;;;;;;;3.75;2.00;;;24.20;52.10;;;;;;5072715;28;20028;-70
2021/05/30 12:09:48;;;;;;;3.05;1.50;;;24.30;52.00;;;;;;5082144;28;20024;-70
2021/05/30 12:12:31;;;;;;;1.83;1.30;;;24.40;51.70;;;;;;5072767;28;20020;-70
2021/05/30 12:15:04;;;;;;;1.75;1.40;;;24.30;51.40;;;;;;5072979;28;20470;-70
2021/05/30 12:17:29;;;;;;;3.20;1.40;;;24.00;51.30;;;;;;5070477;28;20033;-70
2021/05/30 12:19:55;;;;;;;2.75;1.65;;;24.00;52.30;;;;;;5084734;28;20052;-70
2021/05/30 12:22:23;;;;;;;3.40;2.00;;;24.00;52.50;;;;;;5071174;28;20032;-70
2021/05/30 12:24:50;;;;;;;2.95;2.00;;;24.10;53.10;;;;;;5072086;28;20013;-70
2021/05/30 12:27:16;;;;;;;4.63;2.80;;;24.00;53.20;;;;;;5072984;28;20025;-70
2021/05/30 12:29:49;;;;;;;3.78;2.00;;;24.00;53.50;;;;;;5071559;28;20020;-70
2021/05/30 12:32:20;;;;;;;2.83;1.88;;;23.80;53.90;;;;;;5071489;28;20055;-70
2021/05/30 12:34:46;;;;;;;2.88;1.90;;;23.70;54.20;;;;;;5070567;28;20021;-70
2021/05/30 12:37:12;;;;;;;3.63;2.40;;;23.60;54.70;;;;;;5071022;28;20123;-70
2021/05/30 12:39:39;;;;;;;2.67;1.90;;;23.40;55.20;;;;;;5072679;28;20028;-70
2021/05/30 12:42:11;;;;;;;3.80;2.20;;;23.40;55.60;;;;;;5072366;28;20467;-70
2021/05/30 12:44:50;;;;;;;3.55;2.20;;;23.60;55.90;;;;;;5072237;28;20025;-72
2021/05/30 12:47:23;;;;;;;3.33;2.20;;;23.60;55.20;;;;;;5071291;28;20028;-70
2021/05/30 12:49:57;;;;;;;6.38;2.35;;;23.60;55.20;;;;;;5071997;28;20051;-71
2021/05/30 12:52:23;;;;;;;3.78;2.00;;;23.60;55.50;;;;;;5072205;28;20037;-70
2021/05/30 12:55:06;;;;;;;3.05;1.90;;;23.50;56.00;;;;;;5072035;28;20040;-72